Time;durP1;ratioP1;P1;durP2;ratioP2;P2;SDS_P1;SDS_P2;PMS_P1;PMS_P2;Temp;Humidity;BMP_temperature;BMP_pressure;BME280_temperature;BME280_humidity;BME280_pressure;Samples;Min_cycle;Max_cycle;Signal;HPM_P1;HPM_P2
2023/06/21 00:00:24;;;;;;;13.27;10.50;;;;;;;22.69;100.00;100214.28;5168735;28;20281;-72
2023/06/21 00:02:54;;;;;;;13.73;9.55;;;;;;;22.68;100.00;100215.28;5170615;28;20033;-73
2023/06/21 00:05:25;;;;;;;12.20;8.70;;;;;;;22.60;100.00;100216.13;5165143;28;20210;-72
2023/06/21 00:07:55;;;;;;;12.82;8.02;;;;;;;22.62;100.00;100224.81;5165634;28;20109;-73
2023/06/21 00:10:27;;;;;;;10.07;7.28;;;;;;;22.63;100.00;100223.84;5167135;28;20030;-70
2023/06/21 00:12:58;;;;;;;10.23;6.90;;;;;;;22.63;100.00;100230.00;5146633;28;20038;-72
2023/06/21 00:15:28;;;;;;;9.98;7.43;;;;;;;22.64;100.00;100236.19;5166872;28;20026;-73
2023/06/21 00:17:58;;;;;;;9.93;7.07;;;;;;;22.59;100.00;100235.75;5171900;28;20392;-72
2023/06/21 00:20:29;;;;;;;10.82;6.72;;;;;;;22.67;100.00;100242.91;5167941;28;20270;-73
2023/06/21 00:22:59;;;;;;;9.13;6.57;;;;;;;22.75;100.00;100243.06;5164889;28;20489;-72
2023/06/21 00:25:29;;;;;;;7.97;5.40;;;;;;;22.65;100.00;100238.72;5170111;28;20088;-73
2023/06/21 00:28:00;;;;;;;8.93;5.38;;;;;;;22.68;100.00;100244.59;5155642;28;20087;-72
2023/06/21 00:30:30;;;;;;;6.70;4.72;;;;;;;22.64;100.00;100241.50;5172216;28;20026;-72
2023/06/21 00:33:02;;;;;;;7.40;4.22;;;;;;;22.47;100.00;100244.84;5176424;28;20026;-71
2023/06/21 00:35:32;;;;;;;8.73;4.53;;;;;;;22.41;100.00;100243.56;5175050;28;20029;-71
2023/06/21 00:38:12;;;;;;;5.10;4.05;;;;;;;22.41;100.00;100240.09;5169534;28;20029;-72
2023/06/21 00:40:42;;;;;;;6.80;4.05;;;;;;;22.40;100.00;100249.88;5162757;28;20029;-73
2023/06/21 00:43:14;;;;;;;6.43;3.70;;;;;;;22.19;100.00;100245.56;5166012;28;20033;-73
2023/06/21 00:45:48;;;;;;;6.75;4.13;;;;;;;22.16;100.00;100243.19;5156864;28;20507;-72
2023/06/21 00:48:18;;;;;;;6.38;4.32;;;;;;;22.01;100.00;100242.72;5190291;23;20527;-76
2023/06/21 00:50:48;;;;;;;6.10;3.80;;;;;;;21.95;100.00;100229.94;5185682;28;20041;-75
2023/06/21 00:53:21;;;;;;;5.90;4.00;;;;;;;21.92;100.00;100227.53;5184465;28;20515;-77
2023/06/21 00:55:51;;;;;;;5.07;3.80;;;;;;;21.92;100.00;100232.03;5188793;28;20034;-76
2023/06/21 00:58:22;;;;;;;5.38;3.97;;;;;;;21.95;100.00;100237.09;5188667;28;20399;-77
2023/06/21 01:00:53;;;;;;;6.28;3.95;;;;;;;21.85;100.00;100223.75;5192855;28;20028;-77
2023/06/21 01:03:24;;;;;;;6.90;3.92;;;;;;;21.79;100.00;100226.09;5178344;28;20030;-76
2023/06/21 01:06:09;;;;;;;6.45;3.88;;;;;;;21.75;100.00;100224.69;5195435;28;20033;-76
2023/06/21 01:08:56;;;;;;;6.35;3.65;;;;;;;21.84;100.00;100226.53;5187063;28;20036;-77
2023/06/21 01:11:31;;;;;;;5.22;3.60;;;;;;;21.94;100.00;100230.09;5192338;28;20024;-76
2023/06/21 01:14:27;;;;;;;6.33;4.30;;;;;;;21.84;100.00;100224.72;5196172;28;20025;-76
2023/06/21 01:16:58;;;;;;;5.35;3.78;;;;;;;21.81;100.00;100232.13;5188966;28;20303;-77
2023/06/21 01:19:32;;;;;;;7.15;4.10;;;;;;;21.77;100.00;100228.06;5186634;28;20022;-76
2023/06/21 01:22:15;;;;;;;7.40;4.43;;;;;;;21.75;100.00;100233.50;5192983;28;20040;-77
2023/06/21 01:25:11;;;;;;;7.05;4.78;;;;;;;21.85;100.00;100222.91;5194164;28;20050;-77
2023/06/21 01:27:53;;;;;;;7.03;4.70;;;;;;;21.90;100.00;100212.72;5193903;28;20116;-76
2023/06/21 01:30:26;;;;;;;6.90;4.93;;;;;;;21.88;100.00;100210.16;5191570;28;20036;-77
2023/06/21 01:32:56;;;;;;;7.97;4.70;;;;;;;21.73;100.00;100208.84;5189135;28;20040;-76
2023/06/21 01:35:28;;;;;;;8.30;5.05;;;;;;;21.73;100.00;100208.03;5173564;28;20679;-76
2023/06/21 01:38:00;;;;;;;8.85;4.85;;;;;;;21.96;100.00;100189.06;5195144;28;20377;-75
2023/06/21 01:40:30;;;;;;;6.47;4.40;;;;;;;21.90;100.00;100186.09;5194016;28;20049;-77
2023/06/21 01:43:00;;;;;;;7.35;4.72;;;;;;;21.86;100.00;100184.66;5194896;28;20514;-77
2023/06/21 01:45:31;;;;;;;11.27;5.13;;;;;;;21.71;100.00;100189.50;5173220;28;20108;-77
2023/06/21 01:48:03;;;;;;;7.90;4.75;;;;;;;21.62;100.00;100187.69;5188398;28;20104;-75
2023/06/21 01:50:36;;;;;;;13.32;5.38;;;;;;;21.47;100.00;100194.28;5192826;28;20104;-76
2023/06/21 01:53:07;;;;;;;10.07;6.15;;;;;;;21.40;100.00;100186.97;5194004;28;20026;-77
2023/06/21 01:55:37;;;;;;;8.35;5.95;;;;;;;21.37;100.00;100181.91;5176367;28;20754;-78
2023/06/21 01:58:08;;;;;;;11.15;6.45;;;;;;;21.37;100.00;100188.06;5193668;28;20180;-76
2023/06/21 02:00:38;;;;;;;11.35;6.60;;;;;;;21.36;100.00;100196.16;5193275;28;20026;-76
2023/06/21 02:03:10;;;;;;;8.90;5.60;;;;;;;21.22;100.00;100196.53;5193905;28;20033;-75
2023/06/21 02:05:42;;;;;;;9.10;5.20;;;;;;;21.23;100.00;100208.84;5193010;28;20025;-78
2023/06/21 02:08:15;;;;;;;9.30;5.72;;;;;;;21.22;100.00;100204.50;5189400;28;20034;-76
2023/06/21 02:10:46;;;;;;;10.05;5.65;;;;;;;21.08;100.00;100207.47;5177738;28;20109;-76
2023/06/21 02:13:17;;;;;;;8.65;5.40;;;;;;;21.14;100.00;100204.28;5177657;28;20034;-76
2023/06/21 02:15:48;;;;;;;8.07;5.13;;;;;;;21.04;100.00;100203.41;5174967;28;20483;-73
2023/06/21 02:18:21;;;;;;;9.48;5.60;;;;;;;20.91;100.00;100211.53;5191354;28;20022;-77
2023/06/21 02:20:52;;;;;;;8.75;5.75;;;;;;;20.89;100.00;100217.97;5194070;28;20017;-78
2023/06/21 02:23:22;;;;;;;9.60;6.25;;;;;;;20.95;100.00;100218.28;5190195;28;20040;-77
2023/06/21 02:25:52;;;;;;;13.30;6.47;;;;;;;20.81;100.00;100220.38;5195170;28;20117;-77
2023/06/21 02:28:23;;;;;;;12.75;6.75;;;;;;;20.72;100.00;100221.16;5194381;28;20283;-76
2023/06/21 02:30:53;;;;;;;15.82;6.68;;;;;;;20.68;100.00;100230.31;5190126;28;20572;-78
2023/06/21 02:33:23;;;;;;;9.27;6.30;;;;;;;20.67;100.00;100234.78;5175279;28;20700;-78
2023/06/21 02:35:55;;;;;;;14.07;6.23;;;;;;;20.66;100.00;100242.88;5194356;28;20345;-75
2023/06/21 02:38:25;;;;;;;10.68;5.80;;;;;;;20.64;100.00;100246.66;5194886;28;20333;-78
2023/06/21 02:40:56;;;;;;;14.13;6.93;;;;;;;20.57;100.00;100243.66;5193873;28;20021;-77
2023/06/21 02:43:26;;;;;;;14.38;6.75;;;;;;;20.53;100.00;100244.88;5191154;28;20053;-77
2023/06/21 02:45:56;;;;;;;10.82;6.97;;;;;;;20.50;100.00;100249.59;5192953;28;20036;-78
2023/06/21 02:48:26;;;;;;;14.98;7.38;;;;;;;20.43;100.00;100251.06;5194486;28;20056;-76
2023/06/21 02:50:57;;;;;;;9.25;6.35;;;;;;;20.40;100.00;100268.06;5176471;28;20026;-76
2023/06/21 02:53:27;;;;;;;11.73;6.30;;;;;;;20.35;100.00;100272.91;5191160;28;20443;-76
2023/06/21 02:55:58;;;;;;;10.87;7.10;;;;;;;20.39;100.00;100274.34;5197985;28;20022;-77
2023/06/21 02:58:29;;;;;;;10.50;5.95;;;;;;;20.45;100.00;100271.19;5197585;28;20295;-76
2023/06/21 03:00:59;;;;;;;9.50;5.97;;;;;;;20.47;100.00;100271.91;5197468;28;20026;-77
2023/06/21 03:03:29;;;;;;;10.63;6.35;;;;;;;20.54;100.00;100264.28;5197392;28;20346;-76
2023/06/21 03:05:59;;;;;;;10.10;6.07;;;;;;;20.54;100.00;100273.13;5198801;28;20263;-76
2023/06/21 03:08:31;;;;;;;8.48;5.68;;;;;;;20.59;100.00;100289.50;5194079;28;20037;-76
2023/06/21 03:11:01;;;;;;;10.10;5.28;;;;;;;20.66;100.00;100288.03;5195476;28;20029;-78
2023/06/21 03:13:32;;;;;;;9.70;5.28;;;;;;;20.66;100.00;100301.31;5196471;28;20284;-77
2023/06/21 03:16:03;;;;;;;6.60;5.00;;;;;;;20.72;100.00;100306.16;5195747;28;20026;-76
2023/06/21 03:18:33;;;;;;;8.07;5.03;;;;;;;20.77;100.00;100306.59;5192902;28;20276;-75
2023/06/21 03:21:04;;;;;;;10.48;5.45;;;;;;;20.75;100.00;100300.56;5196824;28;20025;-77
2023/06/21 03:23:35;;;;;;;7.72;5.25;;;;;;;20.75;100.00;100305.88;5192353;28;20033;-78
2023/06/21 03:26:05;;;;;;;7.70;5.15;;;;;;;20.77;100.00;100310.13;5194754;28;20045;-76
2023/06/21 03:28:36;;;;;;;9.48;5.57;;;;;;;20.79;100.00;100313.50;5172206;28;20068;-77
2023/06/21 03:31:07;;;;;;;9.10;5.27;;;;;;;20.87;100.00;100316.38;5195956;28;20068;-76
2023/06/21 03:33:37;;;;;;;8.73;5.65;;;;;;;20.82;100.00;100326.53;5196909;28;20287;-77
2023/06/21 03:36:07;;;;;;;7.53;5.10;;;;;;;20.81;100.00;100342.56;5197048;28;20381;-77
2023/06/21 03:38:37;;;;;;;12.48;6.07;;;;;;;20.84;100.00;100352.97;5191959;28;20073;-77
2023/06/21 03:41:08;;;;;;;7.78;5.20;;;;;;;20.91;100.00;100362.16;5189385;28;20040;-76
2023/06/21 03:43:38;;;;;;;8.97;5.17;;;;;;;20.92;100.00;100355.88;5194818;28;20578;-73
2023/06/21 03:46:08;;;;;;;9.48;5.22;;;;;;;21.01;100.00;100368.41;5195870;28;20338;-76
2023/06/21 03:48:38;;;;;;;9.77;5.10;;;;;;;20.96;100.00;100365.28;5177162;28;20038;-76
2023/06/21 03:51:09;;;;;;;7.18;4.60;;;;;;;20.94;100.00;100375.19;5193882;28;20813;-75
2023/06/21 03:53:39;;;;;;;10.87;5.40;;;;;;;20.88;100.00;100379.19;5193047;28;20176;-76
2023/06/21 03:56:09;;;;;;;11.27;4.77;;;;;;;20.93;100.00;100389.47;5194607;28;20450;-77
2023/06/21 03:58:41;;;;;;;8.10;4.80;;;;;;;20.96;100.00;100394.50;5193597;28;20835;-76
2023/06/21 04:01:12;;;;;;;10.45;4.88;;;;;;;20.94;100.00;100410.59;5193905;28;20029;-77
2023/06/21 04:03:42;;;;;;;7.70;4.78;;;;;;;20.86;100.00;100410.34;5193561;28;20038;-76
2023/06/21 04:06:13;;;;;;;7.55;4.10;;;;;;;20.96;100.00;100413.13;5176757;28;20100;-76
2023/06/21 04:08:43;;;;;;;8.32;4.88;;;;;;;20.95;100.00;100408.78;5191816;28;20018;-77
2023/06/21 04:11:14;;;;;;;7.83;4.30;;;;;;;21.02;100.00;100429.41;5194256;28;20037;-77
2023/06/21 04:13:44;;;;;;;8.50;4.65;;;;;;;21.03;100.00;100430.28;5194652;28;20363;-77
2023/06/21 04:16:14;;;;;;;6.95;4.45;;;;;;;21.02;100.00;100436.53;5195106;28;20037;-76
2023/06/21 04:18:44;;;;;;;9.83;5.17;;;;;;;20.99;100.00;100442.09;5191909;28;20675;-78
2023/06/21 04:21:15;;;;;;;9.40;4.57;;;;;;;20.99;100.00;100442.09;5195123;28;20279;-76
2023/06/21 04:23:45;;;;;;;12.87;5.53;;;;;;;21.04;100.00;100439.94;5187277;28;20429;-76
2023/06/21 04:26:15;;;;;;;7.35;4.03;;;;;;;21.07;100.00;100439.69;5192337;28;20285;-77
2023/06/21 04:28:48;;;;;;;7.22;4.50;;;;;;;21.12;100.00;100443.66;5175049;28;20025;-77
2023/06/21 04:31:18;;;;;;;9.75;4.43;;;;;;;21.15;100.00;100442.56;5174325;28;20057;-76
2023/06/21 04:33:48;;;;;;;7.80;4.00;;;;;;;21.27;100.00;100438.91;5195695;28;20056;-75
2023/06/21 04:36:19;;;;;;;6.97;4.35;;;;;;;21.32;100.00;100450.00;5188802;28;20351;-77
2023/06/21 04:38:49;;;;;;;11.07;4.03;;;;;;;21.63;100.00;100442.09;5173404;28;20017;-77
2023/06/21 04:41:19;;;;;;;5.47;3.88;;;;;;;21.63;100.00;100447.41;5194878;28;20029;-77
2023/06/21 04:43:50;;;;;;;11.73;3.63;;;;;;;22.14;100.00;100447.50;5194439;28;20083;-77
2023/06/21 04:46:21;;;;;;;7.72;3.63;;;;;;;22.85;100.00;100459.81;5195932;28;20041;-77
2023/06/21 04:48:51;;;;;;;6.55;3.47;;;;;;;22.89;100.00;100460.41;5193266;28;20052;-76
2023/06/21 04:51:22;;;;;;;7.90;3.73;;;;;;;22.84;100.00;100463.47;5177816;28;20462;-77
2023/06/21 04:53:52;;;;;;;7.40;4.20;;;;;;;22.86;100.00;100464.16;5192570;28;20314;-78
2023/06/21 04:56:22;;;;;;;7.93;3.87;;;;;;;22.56;100.00;100457.19;5196182;28;20319;-75
2023/06/21 04:58:53;;;;;;;5.87;3.70;;;;;;;23.30;100.00;100468.25;5194309;28;20311;-75
2023/06/21 05:01:23;;;;;;;7.90;3.55;;;;;;;24.84;100.00;100465.19;5189649;28;20279;-76
2023/06/21 05:03:53;;;;;;;8.05;3.35;;;;;;;24.39;100.00;100473.22;5188969;28;20476;-76
2023/06/21 05:06:25;;;;;;;4.70;2.78;;;;;;;25.03;100.00;100467.81;5191663;28;20278;-76
2023/06/21 05:08:56;;;;;;;5.18;3.03;;;;;;;26.13;97.74;100464.78;5185401;28;20030;-75
2023/06/21 05:11:28;;;;;;;6.22;3.25;;;;;;;26.47;95.46;100457.66;5174361;28;20033;-75
2023/06/21 05:13:58;;;;;;;4.40;2.83;;;;;;;26.89;91.03;100462.09;5186940;28;20253;-78
2023/06/21 05:16:28;;;;;;;5.93;2.80;;;;;;;27.52;88.53;100455.31;5189722;28;20920;-76
2023/06/21 05:18:59;;;;;;;5.40;2.60;;;;;;;28.83;84.47;100455.78;5189495;28;20303;-77
2023/06/21 05:21:29;;;;;;;5.85;2.47;;;;;;;28.95;80.32;100465.19;5177616;28;20832;-76
2023/06/21 05:23:59;;;;;;;4.60;2.60;;;;;;;29.81;76.00;100467.59;5186034;28;20029;-78
2023/06/21 05:26:30;;;;;;;5.70;2.50;;;;;;;30.51;75.74;100465.47;5188265;28;20033;-77
2023/06/21 05:29:00;;;;;;;5.20;2.63;;;;;;;30.26;75.05;100472.16;5174148;28;20036;-77
2023/06/21 05:31:31;;;;;;;3.42;2.22;;;;;;;30.36;75.92;100465.47;5181814;28;20026;-76
2023/06/21 05:34:01;;;;;;;4.65;2.47;;;;;;;31.15;71.96;100469.19;5184913;28;20049;-76
2023/06/21 05:36:31;;;;;;;6.80;2.70;;;;;;;30.44;73.59;100467.25;5191803;28;20117;-74
2023/06/21 05:39:03;;;;;;;4.40;2.47;;;;;;;31.57;71.94;100469.25;5183964;28;20273;-76
2023/06/21 05:41:33;;;;;;;4.15;2.63;;;;;;;29.84;76.40;100480.72;5189285;28;20866;-77
2023/06/21 05:44:03;;;;;;;8.05;3.05;;;;;;;29.43;76.23;100479.25;5184338;28;20235;-73
2023/06/21 05:46:34;;;;;;;5.23;2.93;;;;;;;28.52;79.78;100486.31;5171644;28;20095;-75
2023/06/21 05:49:04;;;;;;;5.20;2.97;;;;;;;28.16;81.93;100479.59;5188605;28;20367;-75
2023/06/21 05:51:34;;;;;;;6.32;3.65;;;;;;;27.79;83.07;100490.81;5189619;28;20033;-76
2023/06/21 05:54:05;;;;;;;5.75;3.00;;;;;;;26.77;89.08;100491.06;5188886;28;20030;-77
2023/06/21 05:56:37;;;;;;;8.33;3.30;;;;;;;26.10;91.60;100497.25;5190003;28;20029;-76
2023/06/21 05:59:07;;;;;;;9.38;3.30;;;;;;;26.27;89.99;100497.22;5178030;28;20291;-75
2023/06/21 06:01:38;;;;;;;4.65;2.88;;;;;;;26.08;93.54;100507.28;5172852;28;20025;-75
2023/06/21 06:04:08;;;;;;;8.23;3.20;;;;;;;26.07;93.36;100503.78;5159801;28;20499;-77
2023/06/21 06:06:40;;;;;;;4.43;3.00;;;;;;;26.55;90.47;100508.69;5179434;28;20045;-77
2023/06/21 06:09:11;;;;;;;3.78;2.92;;;;;;;25.77;93.72;100513.97;5184502;28;20032;-76
2023/06/21 06:11:41;;;;;;;3.50;2.58;;;;;;;25.83;94.16;100521.44;5193487;28;20025;-76
2023/06/21 06:14:11;;;;;;;7.53;3.00;;;;;;;25.55;93.81;100526.00;5188753;28;20030;-76
2023/06/21 06:16:42;;;;;;;7.03;3.20;;;;;;;25.35;96.80;100534.28;5184088;28;20079;-75
2023/06/21 06:19:12;;;;;;;8.18;3.45;;;;;;;24.78;97.95;100535.31;5190940;28;20124;-74
2023/06/21 06:21:43;;;;;;;5.53;2.92;;;;;;;24.64;99.98;100532.28;5190505;28;20479;-74
2023/06/21 06:24:14;;;;;;;7.93;3.30;;;;;;;24.62;100.00;100533.41;5190494;28;20036;-75
2023/06/21 06:26:44;;;;;;;4.25;2.88;;;;;;;24.60;100.00;100533.56;5189756;28;20403;-75
2023/06/21 06:29:14;;;;;;;3.80;2.50;;;;;;;24.50;100.00;100534.50;5183504;28;20111;-75
2023/06/21 06:31:45;;;;;;;5.07;2.80;;;;;;;24.44;100.00;100535.94;5191748;28;20029;-76
2023/06/21 06:34:15;;;;;;;6.68;3.03;;;;;;;24.48;100.00;100544.50;5195186;28;20280;-75
2023/06/21 06:36:45;;;;;;;5.33;3.53;;;;;;;24.46;100.00;100541.97;5193844;28;20491;-75
2023/06/21 06:39:16;;;;;;;6.63;3.33;;;;;;;25.03;96.63;100544.53;5196500;28;20425;-76
2023/06/21 06:41:46;;;;;;;4.80;3.03;;;;;;;25.04;97.46;100551.56;5196084;28;20428;-75
2023/06/21 06:44:16;;;;;;;5.78;2.90;;;;;;;25.33;94.44;100546.97;5196394;28;20017;-76
2023/06/21 06:46:47;;;;;;;4.22;2.58;;;;;;;26.19;90.46;100542.72;5192327;28;20030;-77
2023/06/21 06:49:17;;;;;;;5.32;2.80;;;;;;;25.91;89.92;100548.31;5209879;23;20045;-72
2023/06/21 06:51:47;;;;;;;4.15;2.70;;;;;;;26.19;89.33;100555.28;5180716;28;20026;-72
2023/06/21 06:54:18;;;;;;;6.50;2.80;;;;;;;26.25;89.50;100547.47;5187416;28;20526;-72
2023/06/21 06:56:48;;;;;;;5.43;2.83;;;;;;;26.50;88.09;100570.00;5185605;28;20030;-72
2023/06/21 06:59:18;;;;;;;3.73;2.60;;;;;;;26.40;87.32;100562.03;5189034;28;20304;-73
2023/06/21 07:01:49;;;;;;;4.50;2.80;;;;;;;26.37;88.10;100564.16;5186096;28;20496;-72
2023/06/21 07:04:20;;;;;;;3.95;2.40;;;;;;;26.83;86.31;100568.25;5191329;28;20058;-73
2023/06/21 07:06:50;;;;;;;3.83;2.70;;;;;;;27.33;84.56;100558.50;5188589;28;20137;-73
2023/06/21 07:09:21;;;;;;;4.60;2.50;;;;;;;27.99;81.60;100564.75;5191174;28;20327;-73
2023/06/21 07:11:51;;;;;;;5.13;2.45;;;;;;;27.74;81.90;100573.78;5183461;28;20363;-73
2023/06/21 07:14:23;;;;;;;3.67;2.38;;;;;;;27.48;82.21;100572.97;5181814;28;20418;-73
2023/06/21 07:16:53;;;;;;;4.22;2.30;;;;;;;26.77;85.37;100576.91;5180174;28;20111;-72
2023/06/21 07:19:24;;;;;;;3.90;2.15;;;;;;;26.41;87.12;100585.16;5191039;28;20491;-72
2023/06/21 07:21:54;;;;;;;4.77;2.47;;;;;;;26.09;89.67;100592.88;5169687;28;20084;-72
2023/06/21 07:24:24;;;;;;;3.05;2.13;;;;;;;26.29;89.08;100594.41;5188048;28;20277;-73
2023/06/21 07:26:54;;;;;;;5.00;2.73;;;;;;;26.55;87.28;100591.81;5180403;28;20080;-71
2023/06/21 07:29:25;;;;;;;3.13;2.10;;;;;;;27.08;85.59;100588.84;5191878;28;20379;-72
2023/06/21 07:31:55;;;;;;;4.32;2.50;;;;;;;26.85;84.28;100595.75;5187233;28;20030;-72
2023/06/21 07:34:25;;;;;;;4.30;2.00;;;;;;;26.61;85.08;100593.88;5179399;28;20029;-72
2023/06/21 07:36:56;;;;;;;2.97;2.13;;;;;;;26.84;83.82;100593.22;5188235;28;20298;-71
2023/06/21 07:39:26;;;;;;;5.07;2.10;;;;;;;26.92;83.04;100602.16;5194578;28;20032;-72
2023/06/21 07:41:59;;;;;;;4.90;2.28;;;;;;;27.15;80.97;100607.88;5190949;28;20029;-72
2023/06/21 07:44:30;;;;;;;3.50;2.25;;;;;;;27.26;80.92;100608.44;5190454;28;20596;-72
2023/06/21 07:47:00;;;;;;;3.60;2.30;;;;;;;27.77;79.14;100611.06;5179411;28;20030;-72
2023/06/21 07:49:30;;;;;;;3.15;2.05;;;;;;;27.10;80.89;100610.22;5188924;28;20515;-72
2023/06/21 07:52:01;;;;;;;3.67;1.93;;;;;;;27.13;82.43;100616.06;5192699;28;20056;-71
2023/06/21 07:54:31;;;;;;;4.53;2.35;;;;;;;26.76;81.91;100612.78;5194174;28;20272;-73
2023/06/21 07:57:02;;;;;;;3.67;2.37;;;;;;;26.26;83.54;100623.34;5183678;28;20461;-72
2023/06/21 07:59:32;;;;;;;9.18;3.13;;;;;;;26.88;83.50;100616.03;5191253;28;20264;-71
2023/06/21 08:02:03;;;;;;;4.27;2.33;;;;;;;27.44;82.77;100608.38;5194017;28;20399;-72
2023/06/21 08:04:33;;;;;;;4.53;2.33;;;;;;;27.31;81.15;100611.47;5192071;28;20268;-72
2023/06/21 08:07:04;;;;;;;4.83;2.10;;;;;;;27.74;81.41;100616.75;5186672;28;20034;-73
2023/06/21 08:09:34;;;;;;;5.00;2.20;;;;;;;28.74;77.22;100608.34;5184037;28;20350;-72
2023/06/21 08:12:05;;;;;;;5.03;2.00;;;;;;;28.30;73.47;100614.19;5189730;28;20053;-73
2023/06/21 08:14:35;;;;;;;4.28;2.00;;;;;;;29.12;72.80;100612.22;5188681;28;20283;-73
2023/06/21 08:17:05;;;;;;;5.68;2.38;;;;;;;29.05;73.49;100619.31;5186936;28;20022;-72
2023/06/21 08:19:36;;;;;;;3.85;2.50;;;;;;;30.63;68.12;100615.22;5189957;28;20395;-72
2023/06/21 08:22:06;;;;;;;4.55;2.50;;;;;;;30.18;69.93;100609.78;5181721;28;20484;-73
2023/06/21 08:24:37;;;;;;;3.63;2.33;;;;;;;28.75;75.41;100617.28;5188170;28;20116;-72
2023/06/21 08:27:07;;;;;;;4.97;2.35;;;;;;;27.83;77.83;100633.75;5190977;28;20405;-72
2023/06/21 08:29:37;;;;;;;5.70;2.03;;;;;;;28.85;75.34;100623.31;5191866;28;20258;-72
2023/06/21 08:32:07;;;;;;;2.83;1.77;;;;;;;29.07;73.31;100622.66;5190719;28;20276;-72
2023/06/21 08:34:38;;;;;;;3.72;2.40;;;;;;;28.84;73.80;100629.69;5188337;28;20272;-72
2023/06/21 08:37:08;;;;;;;3.10;2.05;;;;;;;29.84;69.80;100620.91;5187907;28;20079;-71
2023/06/21 08:39:38;;;;;;;4.17;2.27;;;;;;;31.13;67.44;100617.13;5176902;28;20029;-71
2023/06/21 08:42:09;;;;;;;2.90;1.88;;;;;;;29.47;70.33;100622.56;5191765;28;20813;-70
2023/06/21 08:44:40;;;;;;;3.58;2.10;;;;;;;30.09;68.71;100624.34;5188519;28;20093;-70
2023/06/21 08:47:11;;;;;;;4.43;2.05;;;;;;;30.78;66.68;100624.19;5187449;28;20048;-71
2023/06/21 08:49:46;;;;;;;2.65;1.95;;;;;;;32.21;63.40;100616.31;5188660;28;20032;-71
2023/06/21 08:52:22;;;;;;;4.40;2.05;;;;;;;31.18;65.35;100625.50;5172540;28;20030;-72
2023/06/21 08:55:05;;;;;;;2.92;1.95;;;;;;;30.94;66.73;100620.31;5172696;28;20026;-71
2023/06/21 08:57:41;;;;;;;5.13;1.90;;;;;;;32.50;63.89;100625.13;5175839;28;20276;-71
2023/06/21 09:00:16;;;;;;;3.35;2.20;;;;;;;31.32;66.12;100637.31;5177328;28;20022;-71
2023/06/21 09:02:49;;;;;;;2.50;1.60;;;;;;;33.10;63.32;100631.72;5178686;28;20037;-71
2023/06/21 09:05:44;;;;;;;5.03;1.80;;;;;;;33.01;62.04;100624.78;5174021;28;20054;-72
2023/06/21 09:08:15;;;;;;;;;;;;;;;33.94;58.82;100638.72;5177852;28;20033;-72
2023/06/21 09:10:50;;;;;;;7.30;2.13;;;;;;;34.07;58.60;100638.78;5174595;28;20340;-72
2023/06/21 09:13:22;;;;;;;2.78;1.88;;;;;;;33.76;59.68;100633.84;5175356;28;20022;-71
2023/06/21 09:15:55;;;;;;;2.38;1.60;;;;;;;34.15;59.08;100635.91;5176882;28;20041;-71
2023/06/21 09:18:27;;;;;;;3.05;2.17;;;;;;;32.83;62.59;100631.72;5173673;28;20029;-71
2023/06/21 09:20:57;;;;;;;4.35;1.90;;;;;;;34.52;58.86;100627.22;5170531;28;20022;-71
2023/06/21 09:23:28;;;;;;;4.60;1.95;;;;;;;33.61;59.68;100629.56;5172211;28;20508;-71
2023/06/21 09:25:59;;;;;;;3.53;1.92;;;;;;;34.36;58.41;100633.06;5172866;28;20480;-71
2023/06/21 09:28:29;;;;;;;2.67;1.90;;;;;;;33.73;60.67;100633.41;5183887;28;20088;-70
2023/06/21 09:31:00;;;;;;;5.30;2.22;;;;;;;32.65;63.03;100631.31;5174445;28;20021;-71
2023/06/21 09:33:31;;;;;;;4.30;2.03;;;;;;;33.99;58.33;100638.97;5178491;28;20107;-70
2023/06/21 09:36:02;;;;;;;3.08;2.20;;;;;;;33.59;58.70;100635.19;5177566;28;20640;-72
2023/06/21 09:38:33;;;;;;;4.75;1.80;;;;;;;32.85;59.32;100626.09;5176642;28;20038;-71
2023/06/21 09:41:07;;;;;;;3.22;2.17;;;;;;;31.82;61.29;100632.88;5178751;28;20479;-70
2023/06/21 09:43:44;;;;;;;3.85;2.03;;;;;;;31.48;61.37;100631.75;5179905;28;20041;-72
2023/06/21 09:46:15;;;;;;;4.20;2.33;;;;;;;31.44;63.91;100644.81;5178613;28;20430;-70
2023/06/21 09:48:45;;;;;;;5.65;2.10;;;;;;;31.58;62.79;100643.13;5175950;28;20052;-71
2023/06/21 09:51:18;;;;;;;5.25;2.22;;;;;;;31.17;63.13;100637.31;5160539;28;20019;-71
2023/06/21 09:53:50;;;;;;;11.30;2.80;;;;;;;31.18;62.50;100647.09;5177762;28;20030;-70
2023/06/21 09:56:22;;;;;;;2.92;1.98;;;;;;;31.12;61.34;100645.16;5179374;28;20033;-71
2023/06/21 09:58:53;;;;;;;6.53;2.10;;;;;;;31.35;62.55;100653.19;5175760;28;20040;-71
2023/06/21 10:01:24;;;;;;;3.13;2.10;;;;;;;31.52;62.85;100650.13;5176575;28;20025;-71
2023/06/21 10:03:54;;;;;;;3.00;2.20;;;;;;;31.32;63.51;100651.69;5177426;28;20162;-70
2023/06/21 10:06:28;;;;;;;3.28;2.20;;;;;;;31.00;64.31;100656.56;5180609;28;20040;-71
2023/06/21 10:08:58;;;;;;;4.15;2.33;;;;;;;31.81;63.67;100660.09;5178243;28;20373;-71
2023/06/21 10:11:29;;;;;;;5.67;2.27;;;;;;;30.36;64.96;100658.88;5184052;28;20575;-71
2023/06/21 10:13:59;;;;;;;8.33;2.30;;;;;;;30.73;65.21;100659.81;5179124;28;20026;-71
2023/06/21 10:16:32;;;;;;;6.05;2.63;;;;;;;29.94;65.60;100666.53;5180004;28;20109;-70
2023/06/21 10:19:03;;;;;;;3.90;2.40;;;;;;;29.59;66.13;100665.13;5163569;28;20037;-70
2023/06/21 10:21:35;;;;;;;3.72;2.67;;;;;;;29.49;66.76;100660.97;5180957;28;20025;-71
2023/06/21 10:24:06;;;;;;;3.47;2.38;;;;;;;29.51;69.27;100667.00;5180687;28;20025;-71
2023/06/21 10:26:36;;;;;;;3.50;2.40;;;;;;;29.86;67.70;100666.53;5181397;28;20029;-71
2023/06/21 10:29:08;;;;;;;4.35;2.70;;;;;;;30.32;66.77;100669.22;5172365;28;21406;-70
2023/06/21 10:31:43;;;;;;;4.40;2.55;;;;;;;30.60;66.01;100672.25;5177779;28;20037;-71
2023/06/21 10:34:19;;;;;;;6.25;2.72;;;;;;;30.16;67.00;100663.06;5177552;28;20026;-69
2023/06/21 10:36:55;;;;;;;6.00;2.65;;;;;;;29.67;66.78;100677.75;5171411;28;20503;-69
2023/06/21 10:39:26;;;;;;;4.35;2.45;;;;;;;29.03;68.23;100676.00;5177737;28;20045;-70
2023/06/21 10:41:59;;;;;;;7.18;2.63;;;;;;;28.84;68.42;100675.47;5180454;28;20057;-71
2023/06/21 10:44:30;;;;;;;3.45;2.53;;;;;;;29.03;68.79;100683.25;5179087;28;20376;-70
2023/06/21 10:47:00;;;;;;;3.70;2.47;;;;;;;28.96;68.15;100683.09;5173344;28;20475;-69
2023/06/21 10:49:31;;;;;;;3.88;2.60;;;;;;;29.38;67.10;100685.56;5175108;28;20019;-71
2023/06/21 10:52:03;;;;;;;4.20;2.50;;;;;;;29.41;66.96;100677.13;5175688;28;20132;-71
2023/06/21 10:54:34;;;;;;;4.60;2.45;;;;;;;29.42;68.54;100681.50;5181636;28;20030;-71
2023/06/21 10:57:05;;;;;;;3.67;2.70;;;;;;;29.60;67.92;100680.28;5185481;28;20057;-71
2023/06/21 10:59:37;;;;;;;3.90;2.70;;;;;;;29.35;67.96;100681.34;5171898;28;20464;-71
2023/06/21 11:02:07;;;;;;;4.70;2.30;;;;;;;29.22;66.91;100685.59;5178340;28;20065;-71
2023/06/21 11:05:17;;;;;;;3.83;2.20;;;;;;;29.25;67.36;100693.31;5165221;28;20052;-70
2023/06/21 11:07:48;;;;;;;4.65;2.60;;;;;;;28.80;68.95;100699.19;5179783;28;20376;-71
2023/06/21 11:10:30;;;;;;;3.35;2.50;;;;;;;28.70;69.88;100700.38;5186629;28;20025;-71
2023/06/21 11:13:00;;;;;;;3.45;2.25;;;;;;;28.74;68.39;100709.78;5180715;28;20076;-71
2023/06/21 11:15:32;;;;;;;3.67;2.40;;;;;;;28.90;67.85;100712.53;5161227;28;20083;-71
2023/06/21 11:18:06;;;;;;;3.25;2.50;;;;;;;28.99;68.98;100712.34;5185620;28;20033;-70
2023/06/21 11:20:57;;;;;;;6.77;2.90;;;;;;;29.21;68.92;100717.06;5187350;28;20022;-72
2023/06/21 11:23:27;;;;;;;4.05;3.00;;;;;;;28.89;68.65;100713.53;5185429;28;20033;-71
2023/06/21 11:26:01;;;;;;;6.10;2.78;;;;;;;28.97;68.76;100716.22;5182025;28;20065;-71
2023/06/21 11:28:33;;;;;;;3.72;2.33;;;;;;;29.42;68.14;100728.13;5181443;28;20037;-72
2023/06/21 11:31:06;;;;;;;4.10;2.50;;;;;;;29.81;68.15;100723.72;5182657;28;20442;-69
2023/06/21 11:33:53;;;;;;;3.08;2.38;;;;;;;29.94;65.73;100726.66;5182478;28;20030;-72
2023/06/21 11:36:26;;;;;;;4.22;2.50;;;;;;;29.75;67.07;100724.38;5183103;28;20038;-71
2023/06/21 11:39:06;;;;;;;3.80;2.35;;;;;;;29.67;66.97;100728.94;5166760;28;20402;-71
2023/06/21 11:41:45;;;;;;;4.55;2.65;;;;;;;29.45;66.25;100732.34;5180198;28;20026;-71